Time;durP1;ratioP1;P1;durP2;ratioP2;P2;SDS_P1;SDS_P2;PMS_P1;PMS_P2;Temp;Humidity;BMP_temperature;BMP_pressure;BME280_temperature;BME280_humidity;BME280_pressure;Samples;Min_cycle;Max_cycle;Signal;HPM_P1;HPM_P2
2021/12/07 00:01:50;;;;;;;19.05;13.20;;;1.70;99.90;;;;;;5041143;28;20426;-71
2021/12/07 00:04:54;;;;;;;5.22;2.92;;;1.80;99.90;;;;;;5032272;28;20080;-71
2021/12/07 00:07:59;;;;;;;3.95;1.42;;;1.80;99.90;;;;;;5029673;28;20041;-71
2021/12/07 00:11:03;;;;;;;2.42;1.23;;;1.80;99.90;;;;;;5040095;28;20053;-71
2021/12/07 00:14:14;;;;;;;5.55;2.63;;;1.80;99.90;;;;;;5028297;28;20033;-71
2021/12/07 00:17:19;;;;;;;7.78;3.92;;;1.70;99.90;;;;;;5031249;28;20037;-71
2021/12/07 00:20:23;;;;;;;7.80;3.58;;;1.60;99.90;;;;;;5039296;28;20053;-71
2021/12/07 00:23:27;;;;;;;6.53;3.75;;;1.40;99.90;;;;;;5031161;28;20045;-71
2021/12/07 00:26:31;;;;;;;4.20;2.53;;;1.40;99.90;;;;;;5032081;28;20050;-71
2021/12/07 00:29:36;;;;;;;2.70;1.83;;;1.40;99.90;;;;;;5026882;28;20045;-71
2021/12/07 00:32:51;;;;;;;2.92;2.10;;;1.40;99.90;;;;;;5029082;28;20385;-71
2021/12/07 00:35:56;;;;;;;7.65;3.40;;;1.40;99.90;;;;;;5029286;28;20033;-71
2021/12/07 00:39:00;;;;;;;16.33;6.65;;;1.40;99.90;;;;;;5030801;28;20041;-71
2021/12/07 00:42:04;;;;;;;9.48;5.30;;;1.30;99.90;;;;;;5031265;28;20048;-71
2021/12/07 00:45:11;;;;;;;11.02;5.22;;;1.30;99.90;;;;;;5026792;28;20461;-71
2021/12/07 00:48:16;;;;;;;14.30;7.35;;;1.30;99.90;;;;;;5023926;28;20052;-71
2021/12/07 00:51:20;;;;;;;14.95;8.93;;;1.20;99.90;;;;;;5031224;28;20388;-71
2021/12/07 00:54:24;;;;;;;6.03;3.55;;;1.10;99.90;;;;;;5026830;28;20049;-71
2021/12/07 00:57:28;;;;;;;3.38;1.90;;;1.10;99.90;;;;;;5029356;28;20038;-71
2021/12/07 01:00:32;;;;;;;6.97;1.80;;;1.20;99.90;;;;;;5027944;28;20038;-71
2021/12/07 01:03:39;;;;;;;2.33;1.42;;;1.20;99.90;;;;;;5030064;28;20037;-71
2021/12/07 01:26:53;;;;;;;14.93;10.52;;;1.00;99.90;;;;;;5029689;28;20045;-71
2021/12/07 01:30:10;;;;;;;8.20;3.78;;;0.90;99.90;;;;;;5029136;28;20395;-71
2021/12/07 01:33:43;;;;;;;6.03;3.70;;;0.90;99.90;;;;;;5028998;28;20030;-71
2021/12/07 01:50:11;;;;;;;8.27;5.03;;;0.70;99.90;;;;;;5029880;28;20049;-71
2021/12/07 01:53:20;;;;;;;8.77;5.30;;;0.70;99.90;;;;;;5029411;28;20029;-71
2021/12/07 01:59:47;;;;;;;;;;;0.50;99.90;;;;;;5030006;28;20040;-71
2021/12/07 02:02:51;;;;;;;11.40;6.75;;;0.50;99.90;;;;;;5031746;28;19916;-71
2021/12/07 02:05:56;;;;;;;19.25;8.70;;;0.40;99.90;;;;;;5031727;28;20671;-71
2021/12/07 02:09:00;;;;;;;14.10;8.40;;;0.30;99.90;;;;;;5032109;28;20061;-71
2021/12/07 02:12:08;;;;;;;18.48;9.18;;;0.30;99.90;;;;;;5034105;28;20048;-71
2021/12/07 02:15:22;;;;;;;21.88;11.38;;;0.30;99.90;;;;;;5031332;28;20044;-71
2021/12/07 02:18:28;;;;;;;18.02;8.40;;;0.20;99.90;;;;;;5032799;28;20496;-71
2021/12/07 02:21:31;;;;;;;17.98;8.95;;;0.10;99.90;;;;;;5029911;28;20056;-71
2021/12/07 02:24:46;;;;;;;13.57;7.10;;;-0.10;99.90;;;;;;5031326;28;20048;-71
2021/12/07 02:27:53;;;;;;;18.42;10.00;;;-0.10;99.90;;;;;;5032749;28;20432;-71
2021/12/07 02:30:57;;;;;;;20.42;11.63;;;-0.20;99.90;;;;;;5033889;28;20044;-71
2021/12/07 02:34:03;;;;;;;16.23;10.05;;;-0.30;99.90;;;;;;5041803;28;20056;-72
2021/12/07 02:37:07;;;;;;;19.58;10.65;;;-0.40;99.90;;;;;;5032913;28;20040;-71
2021/12/07 02:40:12;;;;;;;19.27;10.45;;;-0.40;99.90;;;;;;5036217;28;20045;-71
2021/12/07 02:43:19;;;;;;;17.55;9.35;;;-0.40;99.90;;;;;;5033157;28;20486;-71
2021/12/07 02:46:24;;;;;;;18.27;9.77;;;-0.40;99.90;;;;;;5035269;28;20048;-71
2021/12/07 02:49:32;;;;;;;20.85;10.40;;;-0.40;99.90;;;;;;5032292;28;20053;-71
2021/12/07 02:52:38;;;;;;;18.40;10.68;;;-0.40;99.90;;;;;;5029724;28;20075;-71
2021/12/07 02:55:44;;;;;;;18.27;10.45;;;-0.40;99.90;;;;;;5031615;28;20044;-72
2021/12/07 02:58:49;;;;;;;18.90;11.30;;;-0.40;99.90;;;;;;5031848;28;20052;-72
2021/12/07 03:02:05;;;;;;;18.13;11.05;;;-0.40;99.90;;;;;;5031998;28;20053;-71
2021/12/07 03:05:27;;;;;;;21.30;11.70;;;-0.40;99.90;;;;;;5036555;28;20045;-72
2021/12/07 03:28:51;;;;;;;21.35;11.80;;;-0.20;99.90;;;;;;5037778;28;20495;-71
2021/12/07 03:32:01;;;;;;;16.50;10.38;;;-0.20;99.90;;;;;;5037111;28;20048;-71
2021/12/07 03:35:05;;;;;;;18.00;11.20;;;-0.20;99.90;;;;;;5031818;28;20052;-72
2021/12/07 03:38:10;;;;;;;18.73;10.77;;;-0.30;99.90;;;;;;5025249;28;20052;-72
2021/12/07 03:41:16;;;;;;;20.90;11.50;;;-0.30;99.90;;;;;;5032333;28;20048;-72
2021/12/07 03:44:19;;;;;;;14.85;10.35;;;-0.40;99.90;;;;;;5032520;28;20052;-71
2021/12/07 03:47:23;;;;;;;15.50;10.38;;;-0.50;99.90;;;;;;5030096;28;20049;-72
2021/12/07 03:50:28;;;;;;;18.80;10.38;;;-0.50;99.90;;;;;;5026854;28;20060;-71
2021/12/07 03:53:32;;;;;;;12.93;7.20;;;-0.50;99.90;;;;;;5026622;28;20044;-71
2021/12/07 03:56:37;;;;;;;21.95;11.63;;;-0.40;99.90;;;;;;5027750;28;20044;-71
2021/12/07 03:59:44;;;;;;;22.23;11.18;;;-0.50;99.90;;;;;;5036652;28;20044;-71
2021/12/07 04:02:51;;;;;;;19.23;10.73;;;-0.50;99.90;;;;;;5039404;28;20048;-72
2021/12/07 04:06:00;;;;;;;20.08;12.13;;;-0.60;99.90;;;;;;5032232;28;20048;-71
2021/12/07 04:09:04;;;;;;;21.80;10.80;;;-0.60;99.90;;;;;;5039381;28;20056;-72
2021/12/07 04:12:10;;;;;;;30.77;17.42;;;-0.50;99.90;;;;;;5031634;28;20041;-72
2021/12/07 04:15:16;;;;;;;26.30;14.32;;;-0.50;99.90;;;;;;5042635;28;20048;-71
2021/12/07 04:18:21;;;;;;;16.92;10.02;;;-0.40;99.90;;;;;;5029912;28;20049;-72
2021/12/07 04:21:25;;;;;;;17.05;10.52;;;-0.40;99.90;;;;;;5030724;28;20534;-72
2021/12/07 04:24:30;;;;;;;15.07;8.65;;;-0.30;99.90;;;;;;5025948;28;20048;-72
2021/12/07 04:27:38;;;;;;;11.93;7.10;;;-0.20;99.90;;;;;;5032170;28;20361;-72
2021/12/07 04:30:43;;;;;;;11.40;6.72;;;0.00;99.90;;;;;;5029281;28;20042;-72
2021/12/07 04:33:48;;;;;;;12.52;6.95;;;0.10;99.90;;;;;;5028868;28;20057;-71
2021/12/07 04:36:53;;;;;;;10.00;5.95;;;0.20;99.90;;;;;;5031845;28;20052;-72
2021/12/07 04:39:56;;;;;;;10.10;6.65;;;0.30;99.90;;;;;;5031641;28;20137;-72
2021/12/07 04:43:02;;;;;;;14.07;6.57;;;0.30;99.90;;;;;;5031348;28;20044;-72
2021/12/07 04:46:19;;;;;;;12.52;6.35;;;0.40;99.90;;;;;;5031139;28;20061;-72
2021/12/07 04:57:38;;;;;;;17.30;7.68;;;0.50;99.90;;;;;;5031221;28;20053;-72
2021/12/07 04:59:28;;;;;;;10.57;6.07;;;0.50;99.90;;;;;;5027964;28;20037;-72
2021/12/07 05:02:35;;;;;;;11.35;7.32;;;0.40;99.90;;;;;;5027413;28;20056;-72
2021/12/07 05:05:45;;;;;;;12.07;6.60;;;0.20;99.90;;;;;;5031217;28;20053;-72
2021/12/07 05:08:56;;;;;;;11.30;7.13;;;0.10;99.90;;;;;;5028146;28;20044;-72
2021/12/07 05:15:26;;;;;;;15.85;9.35;;;0.00;99.90;;;;;;5031133;28;20044;-72
2021/12/07 05:38:37;;;;;;;17.40;7.95;;;0.40;99.90;;;;;;5028451;28;20372;-72
2021/12/07 05:41:41;;;;;;;12.95;7.07;;;0.40;99.90;;;;;;5030850;28;20045;-72
2021/12/07 05:44:45;;;;;;;11.68;7.28;;;0.40;99.90;;;;;;5026809;28;20037;-72
2021/12/07 05:47:49;;;;;;;11.05;7.57;;;0.30;99.90;;;;;;5028475;28;20519;-72
2021/12/07 05:50:53;;;;;;;13.07;7.47;;;0.20;99.90;;;;;;5030470;28;20037;-72
2021/12/07 05:53:57;;;;;;;17.10;7.40;;;0.20;99.90;;;;;;5030183;28;20052;-72
2021/12/07 05:57:01;;;;;;;13.45;6.57;;;0.20;99.90;;;;;;5031136;28;20048;-72
2021/12/07 06:00:10;;;;;;;19.48;7.05;;;0.10;99.90;;;;;;5030349;28;20037;-72
2021/12/07 06:03:17;;;;;;;12.43;6.95;;;0.10;99.90;;;;;;5030287;28;20036;-72
2021/12/07 06:06:20;;;;;;;9.80;6.03;;;0.10;99.90;;;;;;5030705;28;20127;-72
2021/12/07 06:09:25;;;;;;;12.77;7.00;;;0.10;99.90;;;;;;5027619;28;20456;-72
2021/12/07 06:12:29;;;;;;;12.18;8.15;;;0.00;99.90;;;;;;5030345;28;20045;-72
2021/12/07 06:15:36;;;;;;;16.48;7.88;;;0.00;99.90;;;;;;5030433;28;20503;-72
2021/12/07 06:18:41;;;;;;;12.75;6.97;;;-0.10;99.90;;;;;;5027008;28;20041;-72
2021/12/07 06:21:45;;;;;;;13.70;7.25;;;-0.20;99.90;;;;;;5028149;28;20056;-72
2021/12/07 06:24:49;;;;;;;12.48;7.45;;;-0.30;99.90;;;;;;5030044;28;20046;-72
2021/12/07 06:27:53;;;;;;;15.68;7.25;;;-0.40;99.90;;;;;;5030874;28;20065;-72
2021/12/07 06:30:57;;;;;;;13.07;7.03;;;-0.50;99.90;;;;;;5030031;28;20040;-72
2021/12/07 06:34:01;;;;;;;12.02;6.45;;;-0.60;99.90;;;;;;5029198;28;20044;-72
2021/12/07 06:37:06;;;;;;;15.43;6.30;;;-0.70;99.90;;;;;;5030647;28;20045;-72
2021/12/07 06:40:11;;;;;;;10.85;7.07;;;-0.70;99.90;;;;;;5028229;28;20384;-72
2021/12/07 06:43:16;;;;;;;12.73;6.15;;;-0.80;99.90;;;;;;5025818;28;20048;-72
2021/12/07 06:46:21;;;;;;;11.07;6.05;;;-0.70;99.90;;;;;;5024724;28;20053;-72
2021/12/07 06:49:26;;;;;;;11.02;7.43;;;-0.70;99.90;;;;;;5032784;28;20052;-72
2021/12/07 06:52:30;;;;;;;14.25;6.85;;;-0.70;99.90;;;;;;5031220;28;20412;-72
2021/12/07 06:55:34;;;;;;;10.07;5.72;;;-0.70;99.90;;;;;;5034009;28;20060;-72
2021/12/07 06:58:38;;;;;;;12.57;6.50;;;-0.60;99.90;;;;;;5029868;28;20546;-72
2021/12/07 07:01:43;;;;;;;15.65;7.07;;;-0.60;99.90;;;;;;5030080;28;20045;-72
2021/12/07 07:04:47;;;;;;;10.95;6.47;;;-0.50;99.90;;;;;;5033225;28;20056;-72
2021/12/07 07:07:50;;;;;;;13.10;6.90;;;0.50;99.90;;;;;;5033881;28;20534;-72
2021/12/07 07:10:55;;;;;;;10.43;6.13;;;3.50;99.90;;;;;;5033175;28;20384;-72
2021/12/07 07:14:00;;;;;;;12.15;5.22;;;6.70;99.90;;;;;;5031137;28;20048;-72
2021/12/07 07:17:05;;;;;;;10.60;5.50;;;9.70;99.90;;;;;;5031756;28;20049;-72
2021/12/07 07:20:13;;;;;;;12.63;4.80;;;11.70;99.90;;;;;;5032339;28;20037;-72
2021/12/07 07:23:17;;;;;;;8.45;5.15;;;11.40;98.50;;;;;;5031366;28;20056;-72
2021/12/07 07:26:22;;;;;;;15.90;5.72;;;9.50;98.40;;;;;;5029993;28;20056;-72
2021/12/07 07:29:26;;;;;;;20.42;8.65;;;7.60;99.90;;;;;;5028327;28;20056;-72
2021/12/07 07:32:30;;;;;;;17.42;7.82;;;7.20;99.90;;;;;;5031092;28;20392;-72
2021/12/07 07:35:35;;;;;;;12.05;6.25;;;9.90;99.90;;;;;;5029848;28;20052;-72
2021/12/07 07:38:39;;;;;;;10.50;5.93;;;12.70;98.90;;;;;;5030548;28;20497;-72
2021/12/07 07:41:43;;;;;;;7.90;5.28;;;15.30;93.90;;;;;;5030443;28;20037;-72
2021/12/07 07:44:47;;;;;;;9.20;5.30;;;16.80;88.20;;;;;;5029395;28;20040;-72
2021/12/07 07:47:51;;;;;;;7.93;5.93;;;14.50;89.30;;;;;;5025876;28;20049;-72
2021/12/07 07:50:56;;;;;;;9.20;5.55;;;15.70;89.00;;;;;;5032151;28;20043;-72
2021/12/07 07:54:01;;;;;;;5.95;3.83;;;16.60;83.00;;;;;;5027995;28;20048;-72
2021/12/07 07:57:05;;;;;;;5.88;4.30;;;17.80;83.60;;;;;;5027764;28;20044;-72
2021/12/07 08:00:12;;;;;;;15.48;9.02;;;19.10;78.70;;;;;;5028707;28;20053;-72
2021/12/07 08:03:17;;;;;;;10.90;7.78;;;19.10;78.00;;;;;;5026282;28;20049;-72
2021/12/07 08:06:21;;;;;;;8.30;6.38;;;19.90;75.50;;;;;;5032324;28;20041;-72
2021/12/07 08:09:25;;;;;;;5.40;4.15;;;21.50;72.20;;;;;;5025604;28;20049;-73
2021/12/07 08:12:30;;;;;;;10.00;5.60;;;21.40;67.30;;;;;;5022705;28;20040;-72
2021/12/07 08:15:39;;;;;;;6.32;4.75;;;18.40;71.10;;;;;;5025229;28;20391;-73
2021/12/07 08:18:46;;;;;;;7.50;5.20;;;16.70;75.30;;;;;;5023684;28;20031;-72
2021/12/07 08:21:52;;;;;;;8.40;6.13;;;16.00;74.90;;;;;;5029855;28;20489;-72
2021/12/07 08:24:57;;;;;;;7.40;5.18;;;14.90;75.70;;;;;;5031545;28;20044;-72
2021/12/07 08:28:01;;;;;;;12.23;7.03;;;13.20;78.20;;;;;;5024053;28;20048;-72
2021/12/07 08:31:05;;;;;;;11.23;6.82;;;12.40;79.30;;;;;;5030053;28;20514;-72
2021/12/07 08:34:09;;;;;;;8.02;5.53;;;12.00;82.60;;;;;;5031374;28;20040;-72
2021/12/07 08:37:13;;;;;;;8.55;5.35;;;14.80;81.00;;;;;;5027966;28;20040;-72
2021/12/07 08:40:22;;;;;;;8.07;4.97;;;18.00;77.30;;;;;;5024789;28;20044;-72
2021/12/07 08:43:30;;;;;;;6.00;4.53;;;19.80;73.40;;;;;;5028159;28;20052;-72
2021/12/07 08:46:33;;;;;;;6.45;4.40;;;21.10;71.20;;;;;;5030984;28;20052;-72
2021/12/07 08:49:37;;;;;;;6.03;3.80;;;22.90;69.60;;;;;;5028851;28;20412;-72
2021/12/07 08:52:42;;;;;;;5.90;3.80;;;23.80;67.60;;;;;;5026989;28;20052;-73
2021/12/07 09:02:33;;;;;;;3.80;3.33;;;26.50;60.80;;;;;;5025763;28;20389;-71
2021/12/07 09:05:38;;;;;;;5.43;3.50;;;26.50;58.80;;;;;;5025491;28;20053;-71
2021/12/07 09:08:43;;;;;;;6.75;3.90;;;27.00;57.80;;;;;;5029423;28;20041;-71
2021/12/07 09:11:47;;;;;;;4.20;3.55;;;23.20;56.70;;;;;;5026381;28;20033;-70
2021/12/07 09:14:53;;;;;;;5.47;4.10;;;20.70;60.50;;;;;;5027855;28;20380;-70
2021/12/07 09:17:57;;;;;;;7.07;4.40;;;19.60;63.00;;;;;;5028946;28;20044;-70
2021/12/07 09:21:02;;;;;;;8.23;5.18;;;16.50;64.50;;;;;;5026330;28;20053;-71
2021/12/07 09:24:07;;;;;;;6.10;4.65;;;16.00;67.40;;;;;;5031793;28;20056;-71
2021/12/07 09:27:11;;;;;;;8.25;4.80;;;17.70;67.90;;;;;;5028714;28;20068;-71
2021/12/07 09:30:17;;;;;;;6.88;5.63;;;16.50;69.30;;;;;;5029643;28;20044;-71
2021/12/07 09:33:26;;;;;;;10.15;5.97;;;17.40;69.00;;;;;;5026347;28;20515;-70
2021/12/07 09:36:30;;;;;;;10.13;6.25;;;18.00;67.20;;;;;;5029105;28;20499;-73
2021/12/07 09:39:34;;;;;;;8.98;6.13;;;16.80;67.40;;;;;;5029100;28;20049;-71
2021/12/07 09:42:40;;;;;;;7.47;5.68;;;18.70;67.80;;;;;;5028288;28;20495;-73
2021/12/07 09:45:44;;;;;;;9.30;5.85;;;19.60;66.10;;;;;;5030449;28;20036;-71
2021/12/07 09:48:49;;;;;;;7.53;5.90;;;20.70;64.80;;;;;;5027015;28;20037;-70
2021/12/07 09:51:53;;;;;;;8.00;5.60;;;19.00;63.70;;;;;;5028239;28;20718;-70
2021/12/07 09:54:57;;;;;;;9.10;6.78;;;18.50;66.80;;;;;;5026758;28;20041;-70
2021/12/07 09:58:01;;;;;;;10.80;6.50;;;19.10;67.00;;;;;;5027965;28;20048;-71
2021/12/07 10:01:06;;;;;;;8.82;6.70;;;22.30;64.40;;;;;;5029023;28;20064;-70
2021/12/07 10:04:11;;;;;;;10.30;8.13;;;20.50;61.30;;;;;;5027464;28;20053;-73
2021/12/07 10:07:16;;;;;;;10.57;6.90;;;21.50;63.20;;;;;;5026424;28;20503;-72
2021/12/07 10:10:31;;;;;;;11.48;7.88;;;18.10;65.80;;;;;;5028852;28;20045;-70
2021/12/07 10:13:35;;;;;;;11.45;7.78;;;17.10;69.80;;;;;;5025502;28;20049;-72
2021/12/07 10:16:46;;;;;;;10.75;7.30;;;17.20;68.70;;;;;;5028222;28;20044;-72
2021/12/07 10:19:50;;;;;;;9.18;7.45;;;21.40;66.80;;;;;;5029132;28;20041;-71
2021/12/07 10:22:54;;;;;;;10.18;7.40;;;23.90;61.50;;;;;;5031487;28;20036;-72
2021/12/07 10:26:09;;;;;;;11.02;7.80;;;25.30;60.00;;;;;;5029356;28;20044;-72
2021/12/07 10:29:17;;;;;;;10.88;7.43;;;26.20;60.10;;;;;;5027715;28;20052;-72
2021/12/07 10:32:21;;;;;;;12.93;8.30;;;27.10;60.20;;;;;;5031231;28;20479;-72
2021/12/07 10:35:31;;;;;;;11.73;8.00;;;27.80;56.70;;;;;;5028815;28;20392;-72
2021/12/07 10:38:37;;;;;;;9.35;7.32;;;26.20;58.50;;;;;;5026291;28;20052;-70
2021/12/07 10:41:45;;;;;;;9.32;6.20;;;27.70;57.80;;;;;;5028964;28;20045;-72
2021/12/07 10:44:50;;;;;;;9.25;6.53;;;28.80;57.50;;;;;;5027917;28;20037;-72
2021/12/07 10:47:54;;;;;;;8.63;5.43;;;29.60;55.90;;;;;;5029970;28;20393;-72
2021/12/07 10:51:10;;;;;;;7.05;5.63;;;30.00;55.30;;;;;;5031557;28;20037;-72
2021/12/07 10:54:20;;;;;;;11.18;6.43;;;24.40;53.60;;;;;;5033335;28;20037;-71
2021/12/07 10:57:36;;;;;;;11.70;6.47;;;22.20;61.10;;;;;;5033912;28;20076;-71
2021/12/07 11:00:46;;;;;;;7.70;5.47;;;21.90;60.50;;;;;;5031015;28;20049;-71
2021/12/07 11:03:50;;;;;;;10.02;5.60;;;21.00;61.10;;;;;;5032567;28;20041;-71
2021/12/07 11:07:20;;;;;;;8.05;5.43;;;24.00;59.60;;;;;;5031119;28;20052;-71
2021/12/07 11:10:31;;;;;;;7.13;5.53;;;24.50;58.10;;;;;;5026834;28;20052;-72
2021/12/07 11:13:37;;;;;;;6.90;4.93;;;26.60;57.00;;;;;;5032294;28;20044;-72
2021/12/07 11:16:42;;;;;;;10.13;5.22;;;28.30;56.70;;;;;;5028806;28;20372;-72
2021/12/07 11:19:46;;;;;;;6.70;5.07;;;28.50;55.00;;;;;;5028695;28;20062;-72
2021/12/07 11:22:57;;;;;;;7.18;4.78;;;28.00;53.40;;;;;;5023671;28;20492;-71
2021/12/07 11:32:31;;;;;;;17.05;5.47;;;25.60;55.00;;;;;;5033274;28;20044;-71
2021/12/07 11:35:35;;;;;;;8.95;5.45;;;26.30;55.30;;;;;;5031236;28;20048;-71
2021/12/07 11:38:39;;;;;;;9.85;5.93;;;25.80;55.60;;;;;;5029077;28;20044;-72
2021/12/07 11:41:48;;;;;;;10.02;6.10;;;25.60;56.70;;;;;;5030486;28;20044;-71
2021/12/07 11:44:55;;;;;;;10.43;5.45;;;24.50;56.10;;;;;;5026085;28;20147;-71
2021/12/07 11:48:05;;;;;;;7.88;5.75;;;24.60;56.10;;;;;;5029871;28;20056;-71
2021/12/07 11:51:10;;;;;;;9.10;6.20;;;22.50;58.80;;;;;;5027862;28;20052;-71
2021/12/07 11:54:15;;;;;;;8.13;5.40;;;23.40;58.70;;;;;;5027515;28;20040;-70
2021/12/07 11:57:21;;;;;;;7.78;6.07;;;22.80;57.80;;;;;;5024169;28;20048;-70
2021/12/07 12:00:34;;;;;;;7.97;6.10;;;20.50;59.90;;;;;;5016006;28;20056;-71
2021/12/07 12:03:38;;;;;;;11.48;6.07;;;21.40;60.20;;;;;;5030790;28;20048;-71
2021/12/07 12:06:50;;;;;;;8.50;5.63;;;23.50;58.10;;;;;;5029833;28;20052;-72
2021/12/07 12:09:55;;;;;;;7.25;5.55;;;23.70;58.40;;;;;;5027595;28;20056;-71
2021/12/07 12:13:11;;;;;;;8.10;5.10;;;25.30;56.40;;;;;;5028975;28;20048;-71
2021/12/07 12:16:20;;;;;;;10.48;5.25;;;26.60;55.60;;;;;;5030043;28;20048;-71
2021/12/07 12:19:36;;;;;;;12.70;4.82;;;27.40;55.10;;;;;;5027522;28;20040;-71
2021/12/07 12:23:08;;;;;;;7.15;5.28;;;27.70;54.80;;;;;;5029364;28;20040;-71
2021/12/07 12:26:13;;;;;;;8.23;4.60;;;29.00;55.90;;;;;;5031651;28;20381;-71
2021/12/07 12:29:23;;;;;;;6.80;4.22;;;29.40;54.60;;;;;;5030438;28;20376;-71
2021/12/07 12:32:33;;;;;;;4.88;3.65;;;29.10;52.00;;;;;;5030816;28;20633;-71
2021/12/07 12:35:40;;;;;;;6.05;3.90;;;29.60;52.90;;;;;;5017878;28;20048;-71
2021/12/07 12:39:07;;;;;;;5.85;3.97;;;29.40;52.30;;;;;;5027604;28;20041;-71
2021/12/07 12:42:15;;;;;;;7.32;3.80;;;29.20;51.70;;;;;;5029525;28;20044;-71
2021/12/07 12:48:23;;;;;;;4.40;3.30;;;29.40;49.80;;;;;;5024432;28;20510;-71
2021/12/07 12:51:42;;;;;;;5.22;2.80;;;29.20;50.00;;;;;;5020150;28;20514;-71
2021/12/07 12:54:47;;;;;;;3.70;3.00;;;28.50;50.50;;;;;;5026135;28;20124;-72
2021/12/07 12:57:52;;;;;;;5.57;3.13;;;28.60;50.20;;;;;;5026156;28;20057;-71
2021/12/07 13:01:08;;;;;;;5.88;2.92;;;28.40;49.40;;;;;;5026643;28;20044;-71
2021/12/07 13:04:22;;;;;;;3.33;2.53;;;28.60;49.50;;;;;;5028789;28;20044;-71
2021/12/07 13:07:26;;;;;;;2.63;2.22;;;28.40;49.00;;;;;;5028759;28;20048;-71
2021/12/07 13:10:30;;;;;;;3.22;1.88;;;27.80;48.40;;;;;;5029984;28;20117;-71
2021/12/07 13:13:36;;;;;;;4.93;2.20;;;27.60;48.90;;;;;;5027776;28;20048;-71
2021/12/07 13:16:54;;;;;;;2.10;1.65;;;27.90;48.10;;;;;;5028323;28;20045;-71
2021/12/07 13:20:03;;;;;;;2.50;1.33;;;27.40;48.00;;;;;;5026602;28;20041;-70
2021/12/07 13:23:13;;;;;;;2.35;1.65;;;26.70;47.70;;;;;;5035379;28;20048;-71
2021/12/07 13:26:17;;;;;;;2.72;1.60;;;26.70;47.80;;;;;;5021579;28;20057;-71
2021/12/07 13:29:24;;;;;;;2.97;1.80;;;26.60;46.90;;;;;;5026492;28;20047;-71
2021/12/07 13:32:28;;;;;;;2.30;1.30;;;26.50;46.70;;;;;;5026439;28;20048;-71
2021/12/07 13:35:34;;;;;;;2.63;1.27;;;26.50;47.40;;;;;;5025338;28;20036;-71
2021/12/07 13:38:38;;;;;;;2.00;1.20;;;26.40;47.10;;;;;;5026323;28;20056;-71
2021/12/07 13:42:17;;;;;;;1.52;1.20;;;26.20;47.20;;;;;;5027018;28;20048;-71
2021/12/07 13:45:22;;;;;;;1.80;1.08;;;25.60;46.20;;;;;;5007512;28;20056;-71
2021/12/07 13:48:26;;;;;;;4.50;1.65;;;25.70;46.60;;;;;;5025570;28;20399;-71
2021/12/07 13:51:30;;;;;;;4.00;1.67;;;25.90;47.10;;;;;;5028902;28;20049;-71
2021/12/07 13:54:41;;;;;;;2.60;1.75;;;26.10;46.80;;;;;;5029852;28;20040;-71
2021/12/07 13:57:49;;;;;;;3.38;1.70;;;25.80;46.50;;;;;;5029059;28;20036;-70
2021/12/07 14:00:53;;;;;;;3.40;1.50;;;25.50;47.10;;;;;;5034168;28;20356;-71
2021/12/07 14:03:57;;;;;;;2.45;1.95;;;24.80;47.00;;;;;;5028396;28;20037;-71
2021/12/07 14:07:01;;;;;;;3.80;1.65;;;24.40;47.80;;;;;;5028552;28;20049;-70
2021/12/07 14:10:20;;;;;;;4.95;1.55;;;23.90;47.90;;;;;;5025992;28;20068;-70
2021/12/07 14:13:24;;;;;;;3.88;1.95;;;23.60;48.40;;;;;;5027694;28;20052;-70
2021/12/07 14:16:29;;;;;;;4.05;2.30;;;23.90;49.30;;;;;;5029779;28;20041;-70
2021/12/07 14:19:33;;;;;;;3.80;1.92;;;23.50;49.40;;;;;;5032031;28;20044;-70
2021/12/07 14:22:38;;;;;;;4.90;1.90;;;23.10;49.20;;;;;;5029801;28;20040;-70
2021/12/07 14:26:09;;;;;;;4.35;2.55;;;22.70;50.70;;;;;;5031525;28;20400;-70
2021/12/07 14:29:21;;;;;;;2.60;1.80;;;22.10;49.70;;;;;;5032323;28;20037;-72
2021/12/07 14:32:27;;;;;;;7.03;2.92;;;21.50;50.10;;;;;;5033058;28;20392;-72
2021/12/07 14:35:31;;;;;;;4.18;2.20;;;21.10;51.20;;;;;;5028741;28;20044;-70
2021/12/07 14:38:35;;;;;;;4.88;2.80;;;20.70;51.00;;;;;;5030225;28;20060;-72
2021/12/07 14:41:48;;;;;;;4.78;2.30;;;20.70;51.80;;;;;;5033295;28;20044;-73
2021/12/07 14:44:58;;;;;;;3.83;2.42;;;20.70;51.70;;;;;;5031806;28;20515;-72
2021/12/07 14:48:03;;;;;;;3.72;2.60;;;20.60;51.60;;;;;;5031621;28;20048;-71
2021/12/07 14:51:29;;;;;;;5.18;2.95;;;20.60;52.00;;;;;;5032252;28;20380;-71
2021/12/07 14:54:33;;;;;;;4.43;3.10;;;20.50;52.80;;;;;;5029471;28;20040;-71
2021/12/07 14:57:39;;;;;;;3.08;2.22;;;20.30;53.00;;;;;;5032368;28;20042;-71
2021/12/07 15:00:42;;;;;;;6.35;2.97;;;20.30;53.20;;;;;;5029120;28;20108;-71
2021/12/07 15:03:51;;;;;;;2.85;1.95;;;20.10;53.50;;;;;;5030097;28;20364;-72
2021/12/07 15:07:05;;;;;;;4.78;2.67;;;19.90;55.50;;;;;;5031872;28;20045;-71
2021/12/07 15:10:13;;;;;;;6.53;2.75;;;19.60;54.70;;;;;;5031429;28;20044;-71
2021/12/07 15:13:17;;;;;;;19.40;10.45;;;18.80;54.90;;;;;;5028862;28;20574;-71
2021/12/07 15:16:21;;;;;;;12.68;7.90;;;17.50;56.90;;;;;;5032344;28;20041;-71
2021/12/07 15:19:27;;;;;;;15.05;10.20;;;16.10;58.70;;;;;;5025721;28;20048;-72
2021/12/07 15:22:31;;;;;;;15.77;9.55;;;14.80;61.80;;;;;;5027393;28;20056;-72
2021/12/07 15:25:39;;;;;;;20.65;14.50;;;13.60;64.10;;;;;;5022925;28;20045;-72
2021/12/07 15:29:02;;;;;;;32.70;20.58;;;12.60;65.40;;;;;;5030752;28;20392;-72
2021/12/07 15:32:09;;;;;;;64.78;35.20;;;11.80;66.20;;;;;;5031676;28;20076;-72
2021/12/07 15:35:23;;;;;;;28.77;18.92;;;11.10;67.60;;;;;;5029395;28;20875;-72
2021/12/07 15:38:27;;;;;;;22.70;13.45;;;10.60;68.50;;;;;;5018675;28;20052;-72
2021/12/07 15:41:31;;;;;;;21.83;11.52;;;10.20;69.20;;;;;;5028450;28;20116;-72
2021/12/07 15:44:43;;;;;;;49.55;29.08;;;9.80;69.90;;;;;;5025902;28;20032;-72
2021/12/07 15:47:49;;;;;;;34.67;21.13;;;9.40;70.70;;;;;;5029249;28;20049;-73
2021/12/07 15:50:52;;;;;;;108.43;45.55;;;9.00;72.30;;;;;;5023269;28;20040;-72
2021/12/07 15:53:56;;;;;;;28.48;16.73;;;8.70;73.00;;;;;;5025884;28;20061;-72
2021/12/07 15:57:06;;;;;;;33.15;19.50;;;8.40;74.40;;;;;;5031290;28;20045;-72
2021/12/07 16:00:12;;;;;;;16.73;9.95;;;8.20;74.60;;;;;;5032170;28;20036;-72
2021/12/07 16:03:27;;;;;;;15.15;9.57;;;7.90;74.30;;;;;;5024787;28;20032;-72
2021/12/07 16:06:36;;;;;;;39.92;22.13;;;7.70;75.10;;;;;;5025503;28;20048;-72
2021/12/07 16:09:40;;;;;;;31.65;15.45;;;7.60;75.50;;;;;;5017919;28;20041;-72
2021/12/07 16:12:59;;;;;;;43.78;20.73;;;7.50;75.70;;;;;;5028642;28;20554;-72
2021/12/07 16:16:13;;;;;;;70.70;29.75;;;7.30;76.30;;;;;;5030442;28;20392;-72
2021/12/07 16:19:20;;;;;;;39.97;15.82;;;7.20;76.50;;;;;;5025910;28;20045;-72
2021/12/07 16:22:23;;;;;;;25.08;10.27;;;7.10;77.50;;;;;;5032407;28;20052;-72
2021/12/07 16:25:28;;;;;;;17.15;9.70;;;7.10;77.90;;;;;;5026653;28;20060;-72
2021/12/07 16:28:32;;;;;;;13.55;6.35;;;7.00;78.10;;;;;;5031603;28;20053;-72
2021/12/07 16:31:36;;;;;;;17.05;7.70;;;6.90;78.60;;;;;;5032181;28;20052;-72
2021/12/07 16:34:40;;;;;;;13.75;7.70;;;6.90;79.00;;;;;;5028047;28;20399;-72
2021/12/07 16:37:44;;;;;;;16.95;9.55;;;6.90;79.50;;;;;;5032569;28;20646;-72
2021/12/07 16:40:48;;;;;;;17.83;8.93;;;6.80;79.30;;;;;;5032352;28;20491;-72
2021/12/07 16:43:53;;;;;;;21.40;10.82;;;6.70;79.60;;;;;;5029816;28;20052;-72
2021/12/07 16:46:59;;;;;;;29.02;15.00;;;6.70;80.10;;;;;;5030717;28;20037;-72
2021/12/07 16:50:06;;;;;;;13.52;6.72;;;6.70;80.90;;;;;;5030756;28;20048;-72
2021/12/07 16:53:11;;;;;;;11.48;6.72;;;6.60;81.20;;;;;;5027329;28;20500;-72
2021/12/07 16:56:15;;;;;;;9.50;5.50;;;6.50;82.20;;;;;;5031592;28;20037;-71
2021/12/07 16:59:19;;;;;;;15.02;8.27;;;6.50;81.40;;;;;;5025247;28;20037;-71
2021/12/07 17:02:23;;;;;;;22.15;10.85;;;6.50;81.00;;;;;;5029102;28;20064;-72
2021/12/07 17:05:29;;;;;;;33.05;15.43;;;6.50;80.90;;;;;;5026274;28;20064;-71
2021/12/07 17:08:34;;;;;;;33.55;14.95;;;6.50;81.30;;;;;;5026587;28;20048;-72
2021/12/07 17:11:38;;;;;;;23.30;10.60;;;6.50;81.30;;;;;;5031420;28;20045;-72
2021/12/07 17:14:42;;;;;;;16.67;9.00;;;6.40;81.50;;;;;;5028759;28;20052;-72
2021/12/07 17:17:49;;;;;;;19.73;9.40;;;6.40;81.60;;;;;;5031609;28;20060;-73
2021/12/07 17:20:54;;;;;;;20.13;11.68;;;6.30;81.20;;;;;;5031206;28;20040;-72
2021/12/07 17:23:58;;;;;;;20.92;12.90;;;6.30;81.70;;;;;;5029583;28;20040;-72
2021/12/07 17:27:02;;;;;;;22.70;12.25;;;6.20;81.30;;;;;;5030729;28;20036;-72
2021/12/07 17:30:08;;;;;;;17.75;11.00;;;6.20;81.50;;;;;;5030850;28;20040;-72
2021/12/07 17:33:14;;;;;;;7.55;3.72;;;6.20;82.20;;;;;;5026403;28;20044;-72
2021/12/07 17:36:18;;;;;;;13.80;7.38;;;5.90;84.80;;;;;;5024883;28;20033;-72
2021/12/07 17:39:22;;;;;;;9.50;5.55;;;5.70;87.90;;;;;;5031060;28;20499;-72
2021/12/07 17:42:28;;;;;;;11.57;6.22;;;5.50;90.20;;;;;;5026651;28;20037;-72
2021/12/07 17:45:33;;;;;;;14.20;6.97;;;5.40;90.80;;;;;;5030785;28;20060;-72
2021/12/07 17:48:37;;;;;;;20.02;11.90;;;5.20;91.70;;;;;;5027846;28;20052;-72
2021/12/07 17:51:42;;;;;;;13.48;8.00;;;5.20;92.10;;;;;;5028647;28;20048;-72